createdAt,value
2023-10-24T00:02:02.086Z,721.72
2023-10-24T00:04:31.100Z,720.85
2023-10-24T00:06:59.582Z,739.92
2023-10-24T00:09:28.028Z,741.33
2023-10-24T00:11:56.603Z,800.60
2023-10-24T00:14:25.056Z,795.33
2023-10-24T00:16:53.752Z,755.65
2023-10-24T00:19:23.848Z,777.67
2023-10-24T00:21:52.505Z,766.72
2023-10-24T00:24:22.898Z,757.08
2023-10-24T00:26:51.267Z,699.42
2023-10-24T00:29:19.796Z,689.15
2023-10-24T00:31:48.493Z,631.03
2023-10-24T00:34:17.946Z,694.58
2023-10-24T00:36:48.487Z,650.40
2023-10-24T00:39:16.894Z,706.00
2023-10-24T00:41:45.495Z,698.45
2023-10-24T00:44:14.568Z,747.58
2023-10-24T00:46:43.306Z,779.90
2023-10-24T00:49:12.250Z,746.90
2023-10-24T00:51:41.173Z,735.55
2023-10-24T00:54:11.420Z,722.65
2023-10-24T00:56:41.171Z,736.40
2023-10-24T00:59:09.680Z,713.70
2023-10-24T01:01:38.554Z,772.67
2023-10-24T01:04:07.854Z,735.33
2023-10-24T01:06:36.488Z,754.47
2023-10-24T01:09:07.078Z,758.72
2023-10-24T01:11:37.088Z,705.58
2023-10-24T01:14:05.930Z,736.92
2023-10-24T01:16:35.707Z,720.72
2023-10-24T01:19:04.326Z,754.97
2023-10-24T01:21:32.970Z,791.28
2023-10-24T01:24:02.891Z,814.90
2023-10-24T01:26:31.419Z,817.72
2023-10-24T01:28:59.811Z,801.33
2023-10-24T01:31:28.485Z,800.00
2023-10-24T01:33:57.105Z,829.30
2023-10-24T01:36:25.649Z,791.47
2023-10-24T01:38:54.074Z,830.97
2023-10-24T01:41:24.609Z,784.63
2023-10-24T01:43:54.049Z,791.50
2023-10-24T01:46:22.779Z,791.45
2023-10-24T01:48:51.378Z,768.22
2023-10-24T01:51:20.985Z,820.42
2023-10-24T01:53:49.744Z,785.05
2023-10-24T01:56:18.302Z,793.35
2023-10-24T01:58:48.192Z,802.42
2023-10-24T02:01:18.117Z,839.55
2023-10-24T02:03:46.693Z,806.75
2023-10-24T02:06:15.260Z,803.60
2023-10-24T02:08:43.766Z,848.92
2023-10-24T02:11:12.104Z,837.63
2023-10-24T02:13:40.669Z,838.28
2023-10-24T02:16:10.695Z,825.22
2023-10-24T02:18:39.417Z,863.03
2023-10-24T02:21:09.287Z,880.20
2023-10-24T02:23:39.625Z,872.45
2023-10-24T02:26:14.604Z,866.08
2023-10-24T02:28:43.686Z,872.58
2023-10-24T02:31:13.936Z,860.17
2023-10-24T02:33:42.404Z,841.65
2023-10-24T02:36:12.103Z,856.40
2023-10-24T02:38:40.953Z,843.13
2023-10-24T02:41:09.435Z,836.65
2023-10-24T02:43:38.144Z,817.35
2023-10-24T02:46:08.762Z,782.35
2023-10-24T02:48:38.685Z,839.97
2023-10-24T02:51:07.091Z,787.85
2023-10-24T02:53:35.673Z,811.97
2023-10-24T02:56:05.239Z,847.83
2023-10-24T02:58:34.405Z,855.33
2023-10-24T03:01:06.413Z,807.97
2023-10-24T03:03:36.990Z,847.95
2023-10-24T03:06:16.028Z,818.00
2023-10-24T03:08:44.774Z,819.72
2023-10-24T03:11:13.541Z,794.75
2023-10-24T03:13:42.562Z,807.20
2023-10-24T03:16:11.189Z,814.83
2023-10-24T03:18:41.631Z,796.75
2023-10-24T03:21:10.440Z,818.67
2023-10-24T03:23:39.072Z,809.53
2023-10-24T03:26:08.262Z,810.85
2023-10-24T03:28:37.034Z,804.40
2023-10-24T03:31:06.375Z,789.30
2023-10-24T03:33:35.642Z,805.72
2023-10-24T03:36:05.869Z,798.45
2023-10-24T03:38:34.634Z,841.50
2023-10-24T03:41:03.094Z,863.10
2023-10-24T03:43:31.629Z,850.97
2023-10-24T03:46:00.434Z,862.88
2023-10-24T03:48:28.898Z,902.70
2023-10-24T03:50:57.260Z,886.03
2023-10-24T03:53:27.172Z,894.50
2023-10-24T03:55:59.668Z,885.55
2023-10-24T03:58:28.551Z,891.95
2023-10-24T04:00:57.386Z,893.58
2023-10-24T04:03:26.121Z,925.47
2023-10-24T04:05:54.753Z,895.22
2023-10-24T04:08:23.329Z,871.50
2023-10-24T04:10:53.090Z,906.35
2023-10-24T04:13:21.674Z,890.17
2023-10-24T04:15:52.733Z,880.05
2023-10-24T04:18:21.242Z,870.13
2023-10-24T04:20:49.701Z,905.22
2023-10-24T04:23:18.868Z,896.40
2023-10-24T04:25:47.971Z,902.30
2023-10-24T04:28:18.421Z,888.45
2023-10-24T04:30:47.158Z,885.83
2023-10-24T04:33:16.536Z,856.97
2023-10-24T04:35:47.321Z,879.63
2023-10-24T04:38:16.024Z,871.67
2023-10-24T04:40:44.874Z,843.65
2023-10-24T04:43:13.503Z,814.00
2023-10-24T04:45:43.382Z,824.40
2023-10-24T04:48:12.511Z,840.28
2023-10-24T04:50:41.535Z,804.78
2023-10-24T04:53:10.018Z,822.22
2023-10-24T04:55:38.668Z,773.38
2023-10-24T04:58:08.085Z,794.58
2023-10-24T05:00:36.660Z,781.17
2023-10-24T05:03:06.813Z,815.45
2023-10-24T05:05:35.258Z,768.60
2023-10-24T05:08:08.048Z,817.45
2023-10-24T05:10:37.111Z,794.80
2023-10-24T05:13:05.823Z,794.65
2023-10-24T05:15:34.275Z,811.70
2023-10-24T05:18:06.818Z,858.67
2023-10-24T05:20:37.553Z,836.38
2023-10-24T05:23:06.009Z,803.55
2023-10-24T05:25:34.731Z,819.40
2023-10-24T05:28:03.556Z,773.97
2023-10-24T05:30:32.133Z,846.30
2023-10-24T05:33:00.517Z,806.70
2023-10-24T05:35:29.395Z,773.10
2023-10-24T05:38:00.040Z,776.80
2023-10-24T05:40:28.478Z,733.65
2023-10-24T05:42:56.991Z,772.92
2023-10-24T05:45:25.466Z,712.72
2023-10-24T05:47:53.904Z,757.35
2023-10-24T05:50:22.740Z,836.63
2023-10-24T05:52:51.660Z,759.70
2023-10-24T05:55:21.471Z,755.90
2023-10-24T05:57:50.227Z,713.35
2023-10-24T06:00:19.429Z,757.72
2023-10-24T06:02:47.822Z,710.75
2023-10-24T06:05:16.579Z,721.17
2023-10-24T06:07:45.318Z,822.28
2023-10-24T06:10:13.823Z,743.55
2023-10-24T06:12:43.747Z,816.95
2023-10-24T06:15:12.947Z,806.67
2023-10-24T06:17:41.465Z,816.03
2023-10-24T06:20:10.903Z,842.30
2023-10-24T06:22:40.102Z,847.63
2023-10-24T06:25:09.055Z,774.92
2023-10-24T06:27:38.709Z,788.38
2023-10-24T06:30:09.817Z,790.63
2023-10-24T06:32:40.853Z,789.50
2023-10-24T06:35:10.852Z,830.45
2023-10-24T06:37:39.454Z,762.85
2023-10-24T06:40:12.329Z,788.15
2023-10-24T06:42:40.953Z,776.05
2023-10-24T06:45:12.368Z,832.70
2023-10-24T06:47:42.358Z,802.53
2023-10-24T06:50:11.952Z,789.83
2023-10-24T06:52:43.316Z,772.92
2023-10-24T06:55:12.294Z,821.05
2023-10-24T06:57:40.709Z,857.22
2023-10-24T07:00:12.802Z,846.03
2023-10-24T07:02:41.235Z,814.80
2023-10-24T07:05:10.024Z,790.22
2023-10-24T07:07:39.881Z,822.20
2023-10-24T07:10:09.723Z,829.72
2023-10-24T07:12:38.070Z,838.17
2023-10-24T07:15:08.500Z,840.45
2023-10-24T07:17:38.392Z,774.83
2023-10-24T07:20:08.314Z,773.75
2023-10-24T07:22:39.763Z,800.53
2023-10-24T07:25:09.060Z,833.60
2023-10-24T07:27:38.037Z,822.65
2023-10-24T07:30:09.264Z,828.92
2023-10-24T07:32:39.590Z,776.97
2023-10-24T07:35:09.389Z,825.60
2023-10-24T07:37:38.093Z,817.53
2023-10-24T07:40:07.642Z,809.75
2023-10-24T07:42:36.355Z,804.25
2023-10-24T07:45:05.101Z,816.97
2023-10-24T07:47:34.026Z,826.35
2023-10-24T07:50:04.399Z,835.60
2023-10-24T07:52:32.914Z,831.35
2023-10-24T07:55:01.355Z,814.17
2023-10-24T07:57:30.781Z,836.80
2023-10-24T07:59:59.894Z,887.17
2023-10-24T08:02:28.593Z,760.85
2023-10-24T08:04:57.208Z,802.53
2023-10-24T08:07:27.178Z,807.40
2023-10-24T08:09:55.732Z,808.90
2023-10-24T08:12:24.121Z,791.65
2023-10-24T08:14:52.626Z,819.17
2023-10-24T08:17:21.100Z,807.25
2023-10-24T08:19:50.611Z,836.90
2023-10-24T08:22:19.078Z,781.78
2023-10-24T08:24:49.292Z,735.67
2023-10-24T08:27:17.888Z,735.28
2023-10-24T08:29:46.332Z,694.88
2023-10-24T08:32:15.817Z,719.15
2023-10-24T08:34:45.087Z,682.13
2023-10-24T08:37:14.103Z,704.42
2023-10-24T08:39:43.150Z,679.88
2023-10-24T08:42:13.858Z,671.67
2023-10-24T08:44:43.859Z,723.90
2023-10-24T08:47:12.941Z,713.10
2023-10-24T08:49:42.316Z,738.92
2023-10-24T08:52:29.175Z,592.60
2023-10-24T08:54:59.407Z,564.28
2023-10-24T08:57:31.698Z,605.40
2023-10-24T09:00:02.150Z,626.70
2023-10-24T09:02:31.704Z,564.70
2023-10-24T09:05:01.799Z,601.95
2023-10-24T09:07:30.944Z,681.28
2023-10-24T09:09:59.557Z,707.22
2023-10-24T09:12:31.558Z,686.88
2023-10-24T09:15:00.576Z,741.90
2023-10-24T09:17:32.187Z,723.70
2023-10-24T09:20:01.302Z,734.05
2023-10-24T09:22:31.289Z,758.53
2023-10-24T09:25:00.418Z,741.20
2023-10-24T09:27:30.252Z,744.67
2023-10-24T09:29:58.796Z,765.38
2023-10-24T09:32:28.940Z,803.08
2023-10-24T09:34:57.869Z,795.00
2023-10-24T09:37:26.419Z,741.47
2023-10-24T09:39:56.427Z,745.33
2023-10-24T09:42:33.307Z,844.45
2023-10-24T09:45:07.281Z,795.67
2023-10-24T09:47:37.250Z,787.63
2023-10-24T09:50:09.278Z,823.30
2023-10-24T09:52:38.251Z,784.47
2023-10-24T09:55:07.389Z,833.40
2023-10-24T09:57:36.521Z,854.85
2023-10-24T10:00:15.381Z,875.10
2023-10-24T10:02:47.566Z,827.35
2023-10-24T10:05:17.017Z,866.90
2023-10-24T10:07:50.120Z,823.72
2023-10-24T10:10:18.911Z,862.45
2023-10-24T10:12:48.288Z,871.25
2023-10-24T10:15:38.449Z,824.08
2023-10-24T10:18:14.194Z,826.70
2023-10-24T10:20:56.182Z,856.92
2023-10-24T10:23:53.952Z,816.63
2023-10-24T10:26:26.026Z,840.88
2023-10-24T10:29:05.945Z,827.17
2023-10-24T10:32:40.342Z,829.65
2023-10-24T10:34:44.949Z,828.95
2023-10-24T10:37:13.935Z,850.63
2023-10-24T10:39:42.584Z,829.15
2023-10-24T10:42:47.379Z,846.85
2023-10-24T10:45:31.066Z,831.42
2023-10-24T10:48:01.931Z,832.42
2023-10-24T10:50:31.493Z,822.45
2023-10-24T10:53:18.622Z,784.25
2023-10-24T10:56:03.263Z,787.58
2023-10-24T10:58:40.772Z,831.10
2023-10-24T11:01:14.871Z,840.15
2023-10-24T11:03:49.063Z,798.55
2023-10-24T11:06:18.496Z,783.33
2023-10-24T11:08:50.706Z,823.25
2023-10-24T11:11:21.873Z,797.05
2023-10-24T11:13:52.709Z,817.42
2023-10-24T11:16:37.304Z,799.42
2023-10-24T11:19:08.973Z,792.97
2023-10-24T11:21:37.746Z,840.28
2023-10-24T11:24:06.863Z,749.08
2023-10-24T11:26:35.396Z,784.83
2023-10-24T11:29:04.167Z,796.88
2023-10-24T11:31:33.220Z,845.05
2023-10-24T11:34:03.141Z,801.03
2023-10-24T11:36:33.055Z,823.20
2023-10-24T11:39:05.403Z,820.17
2023-10-24T11:41:34.009Z,772.22
2023-10-24T11:44:03.210Z,864.10
2023-10-24T11:46:31.750Z,827.50
2023-10-24T11:49:00.228Z,831.70
2023-10-24T11:51:30.283Z,817.83
2023-10-24T11:54:07.771Z,797.50
2023-10-24T11:56:36.820Z,820.83
2023-10-24T11:59:06.626Z,810.78
2023-10-24T12:01:35.860Z,909.92
2023-10-24T12:04:06.156Z,801.88
2023-10-24T12:06:34.691Z,789.55
2023-10-24T12:09:03.124Z,826.03
2023-10-24T12:11:35.213Z,827.00
2023-10-24T12:14:04.258Z,816.97
2023-10-24T12:16:47.323Z,819.63
2023-10-24T12:19:16.498Z,831.00
2023-10-24T12:21:44.917Z,830.13
2023-10-24T12:24:14.410Z,814.00
2023-10-24T12:26:44.194Z,820.25
2023-10-24T12:29:12.815Z,849.33
2023-10-24T12:31:41.664Z,827.47
2023-10-24T12:34:10.561Z,827.70
2023-10-24T12:36:39.345Z,814.00
2023-10-24T12:39:08.008Z,823.95
2023-10-24T12:41:37.613Z,818.20
2023-10-24T12:44:07.665Z,811.13
2023-10-24T12:46:36.142Z,851.05
2023-10-24T12:49:05.411Z,848.25
2023-10-24T12:51:33.852Z,865.90
2023-10-24T12:54:02.330Z,880.55
2023-10-24T12:56:31.092Z,834.42
2023-10-24T12:58:59.672Z,822.75
2023-10-24T13:01:30.765Z,837.55
2023-10-24T13:03:59.529Z,946.83
2023-10-24T13:06:27.930Z,803.80
2023-10-24T13:08:56.359Z,868.58
2023-10-24T13:11:24.843Z,866.45
2023-10-24T13:13:53.368Z,796.58
2023-10-24T13:16:21.841Z,838.40
2023-10-24T13:18:51.772Z,830.08
2023-10-24T13:21:20.403Z,811.60
2023-10-24T13:23:49.041Z,820.53
2023-10-24T13:26:17.868Z,757.50
2023-10-24T13:28:46.436Z,775.67
2023-10-24T13:31:16.265Z,730.47
2023-10-24T13:34:21.579Z,777.33
2023-10-24T13:36:35.657Z,721.92
2023-10-24T13:39:05.084Z,689.25
2023-10-24T13:41:33.645Z,759.75
2023-10-24T13:44:02.403Z,732.35
2023-10-24T13:46:30.935Z,759.25
2023-10-24T13:48:59.460Z,781.95
2023-10-24T13:51:28.507Z,730.20
2023-10-24T13:53:58.819Z,768.50
2023-10-24T13:56:27.563Z,788.55
2023-10-24T13:58:56.190Z,860.83
2023-10-24T14:01:24.985Z,832.13
2023-10-24T14:03:53.858Z,719.03
2023-10-24T14:06:22.803Z,805.53
2023-10-24T14:08:51.314Z,808.90
2023-10-24T14:11:21.194Z,909.63
2023-10-24T14:13:49.853Z,796.72
2023-10-24T14:16:18.624Z,884.17
2023-10-24T14:18:47.217Z,761.78
2023-10-24T14:21:16.010Z,913.53
2023-10-24T14:23:44.470Z,862.42
2023-10-24T14:26:13.061Z,812.88
2023-10-24T14:28:42.917Z,786.78
2023-10-24T14:31:11.573Z,775.28
2023-10-24T14:33:40.131Z,734.42
2023-10-24T14:36:08.950Z,794.75
2023-10-24T14:38:37.399Z,802.22
2023-10-24T14:41:06.796Z,805.97
2023-10-24T14:43:36.383Z,780.80
2023-10-24T14:46:06.506Z,731.75
2023-10-24T14:48:37.985Z,746.80
2023-10-24T14:51:07.092Z,685.33
2023-10-24T14:53:35.561Z,744.55
2023-10-24T14:56:04.082Z,693.92
2023-10-24T14:58:32.782Z,757.20
2023-10-24T15:01:01.475Z,743.35
2023-10-24T15:03:31.327Z,766.03
2023-10-24T15:05:59.834Z,754.00
2023-10-24T15:08:28.294Z,780.25
2023-10-24T15:10:56.770Z,763.42
2023-10-24T15:13:26.616Z,788.63
2023-10-24T15:15:55.172Z,830.45
2023-10-24T15:18:23.755Z,781.03
2023-10-24T15:20:53.573Z,769.92
2023-10-24T15:23:22.056Z,851.45
2023-10-24T15:25:50.539Z,886.85
2023-10-24T15:28:19.130Z,829.00
2023-10-24T15:30:47.596Z,833.63
2023-10-24T15:33:16.420Z,797.67
2023-10-24T15:35:45.581Z,823.08
2023-10-24T15:38:15.798Z,831.05
2023-10-24T15:40:44.298Z,849.50
2023-10-24T15:43:12.837Z,871.70
2023-10-24T15:45:41.233Z,780.50
2023-10-24T15:48:09.757Z,805.22
2023-10-24T15:50:38.260Z,827.85
2023-10-24T15:53:06.801Z,758.35
2023-10-24T15:55:36.731Z,755.47
2023-10-24T15:58:06.650Z,774.22
2023-10-24T16:00:35.306Z,804.30
2023-10-24T16:03:04.078Z,742.65
2023-10-24T16:05:32.633Z,695.95
2023-10-24T16:08:01.240Z,720.38
2023-10-24T16:10:30.956Z,718.63
2023-10-24T16:13:01.057Z,742.50
2023-10-24T16:15:29.521Z,668.85
2023-10-24T16:17:58.034Z,578.38
2023-10-24T16:20:26.829Z,687.53
2023-10-24T16:22:55.724Z,639.60
2023-10-24T16:25:24.200Z,646.95
2023-10-24T16:27:53.043Z,545.22
2023-10-24T16:30:22.983Z,595.30
2023-10-24T16:32:53.196Z,589.45
2023-10-24T16:35:21.810Z,529.17
2023-10-24T16:37:50.526Z,469.67
2023-10-24T16:43:02.673Z,541.80
2023-10-24T16:45:33.474Z,558.78
2023-10-24T16:48:03.103Z,675.80
2023-10-24T16:50:37.727Z,642.53
2023-10-24T16:53:07.196Z,557.85
2023-10-24T16:55:36.637Z,556.97
2023-10-24T16:58:05.084Z,658.42
2023-10-24T17:00:37.908Z,680.47
2023-10-24T17:03:06.730Z,697.00
2023-10-24T17:05:35.793Z,681.08
2023-10-24T17:08:04.290Z,601.45
2023-10-24T17:10:33.772Z,508.50
2023-10-24T17:13:02.717Z,512.40
2023-10-24T17:15:31.298Z,368.38
2023-10-24T17:18:01.150Z,440.58
2023-10-24T17:20:31.693Z,402.40
2023-10-24T17:23:00.317Z,331.13
2023-10-24T17:25:28.793Z,376.67
2023-10-24T17:27:57.233Z,389.90
2023-10-24T17:30:27.059Z,372.67
2023-10-24T17:32:57.326Z,264.73
2023-10-24T17:35:27.749Z,431.60
2023-10-24T17:37:56.220Z,378.95
2023-10-24T17:40:27.245Z,582.35
2023-10-24T17:42:56.561Z,452.15
2023-10-24T17:45:25.142Z,354.25
2023-10-24T17:47:54.244Z,431.98
2023-10-24T17:50:23.005Z,453.38
2023-10-24T17:52:52.904Z,369.42
2023-10-24T17:55:21.287Z,340.45
2023-10-24T17:57:49.765Z,320.13
2023-10-24T18:15:25.922Z,260.38
2023-10-24T18:17:57.695Z,384.90
2023-10-24T18:20:26.193Z,333.00
2023-10-24T18:22:54.875Z,592.25
2023-10-24T18:25:23.639Z,472.55
2023-10-24T18:27:52.069Z,349.52
2023-10-24T18:30:20.752Z,443.48
2023-10-24T18:32:49.590Z,480.55
2023-10-24T18:35:19.898Z,411.08
2023-10-24T18:37:48.885Z,576.65
2023-10-24T18:40:19.862Z,554.90
2023-10-24T18:42:51.011Z,421.88
2023-10-24T18:45:21.179Z,505.50
2023-10-24T18:47:49.821Z,562.45
2023-10-24T18:50:22.670Z,532.17
2023-10-24T18:52:54.619Z,539.58
2023-10-24T18:55:23.065Z,479.13
2023-10-24T18:57:51.932Z,557.58
2023-10-24T19:00:20.844Z,530.05
2023-10-24T19:02:53.683Z,558.78
2023-10-24T19:05:24.166Z,549.50
2023-10-24T19:07:52.577Z,594.55
2023-10-24T19:10:21.811Z,553.03
2023-10-24T19:12:50.906Z,586.50
2023-10-24T19:15:20.242Z,622.97
2023-10-24T19:17:50.056Z,606.47
2023-10-24T19:20:18.788Z,612.20
2023-10-24T19:22:49.276Z,537.40
2023-10-24T19:25:18.724Z,586.47
2023-10-24T19:27:47.836Z,595.00
2023-10-24T19:30:17.189Z,606.25
2023-10-24T19:32:46.279Z,577.58
2023-10-24T19:35:15.852Z,492.38
2023-10-24T19:37:46.088Z,573.33
2023-10-24T19:40:17.112Z,596.10
2023-10-24T19:42:46.936Z,509.90
2023-10-24T19:45:16.421Z,582.08
2023-10-24T19:47:50.527Z,577.78
2023-10-24T19:50:19.344Z,532.22
2023-10-24T19:52:48.880Z,629.10
2023-10-24T19:55:31.887Z,529.55
2023-10-24T19:58:03.033Z,592.28
2023-10-24T20:00:32.463Z,572.95
2023-10-24T20:03:01.627Z,574.60
2023-10-24T20:05:30.649Z,604.92
2023-10-24T20:08:00.211Z,515.58
2023-10-24T20:10:31.250Z,579.78
2023-10-24T20:13:20.636Z,605.17
2023-10-24T20:15:49.981Z,627.10
2023-10-24T20:18:18.775Z,597.53
2023-10-24T20:20:50.332Z,601.03
2023-10-24T20:23:21.771Z,588.78
2023-10-24T20:25:53.006Z,577.92
2023-10-24T20:28:22.190Z,616.58
2023-10-24T20:30:50.835Z,523.00
2023-10-24T20:33:19.562Z,637.40
2023-10-24T20:35:49.958Z,623.28
2023-10-24T20:38:18.572Z,566.25
2023-10-24T20:40:47.330Z,529.70
2023-10-24T20:43:17.356Z,576.53
2023-10-24T20:45:47.772Z,627.60
2023-10-24T20:48:16.369Z,609.70
2023-10-24T20:50:44.834Z,569.20
2023-10-24T20:53:12.193Z,577.42
2023-10-24T20:55:40.809Z,521.35
2023-10-24T20:58:09.502Z,541.78
2023-10-24T21:00:39.510Z,608.70
2023-10-24T21:03:08.053Z,600.65
2023-10-24T21:05:36.474Z,566.22
2023-10-24T21:08:05.067Z,543.03
2023-10-24T21:10:34.488Z,512.20
2023-10-24T21:13:02.947Z,571.40
2023-10-24T21:15:31.653Z,513.88
2023-10-24T21:18:01.534Z,561.58
2023-10-24T21:20:30.201Z,525.92
2023-10-24T21:22:58.825Z,608.53
2023-10-24T21:25:27.492Z,597.40
2023-10-24T21:27:55.968Z,530.60
2023-10-24T21:30:24.354Z,588.20
2023-10-24T21:32:53.069Z,577.47
2023-10-24T21:35:22.904Z,582.80
2023-10-24T21:37:51.578Z,537.65
2023-10-24T21:40:20.221Z,598.67
2023-10-24T21:42:48.785Z,546.50
2023-10-24T21:45:18.360Z,568.03
2023-10-24T21:47:49.525Z,617.45
2023-10-24T21:50:19.826Z,636.95
2023-10-24T21:52:49.696Z,602.67
2023-10-24T21:55:18.326Z,594.15
2023-10-24T21:57:46.818Z,578.28
2023-10-24T22:00:17.619Z,641.05
2023-10-24T22:02:46.540Z,543.38
2023-10-24T22:05:16.381Z,549.00
2023-10-24T22:07:44.998Z,526.95
2023-10-24T22:10:16.707Z,547.88
2023-10-24T22:12:45.433Z,593.30
2023-10-24T22:15:14.956Z,619.55
2023-10-24T22:17:44.441Z,674.53
2023-10-24T22:20:13.467Z,590.20
2023-10-24T22:22:42.336Z,660.10
2023-10-24T22:25:11.819Z,663.53
2023-10-24T22:27:45.449Z,614.33
2023-10-24T22:30:23.447Z,600.67
2023-10-24T22:32:51.963Z,614.20
2023-10-24T22:35:20.508Z,605.65
2023-10-24T22:37:48.969Z,593.42
2023-10-24T22:40:17.675Z,565.60
2023-10-24T22:42:47.545Z,604.22
2023-10-24T22:45:16.203Z,698.75
2023-10-24T22:47:48.628Z,593.20
2023-10-24T22:50:21.678Z,577.10
2023-10-24T22:52:51.563Z,537.30
2023-10-24T22:55:20.365Z,600.38
2023-10-24T22:57:50.582Z,584.88
2023-10-24T23:00:19.617Z,629.13
2023-10-24T23:02:48.279Z,497.45
2023-10-24T23:05:17.097Z,553.67
2023-10-24T23:07:45.863Z,550.78
2023-10-24T23:10:14.557Z,465.13
2023-10-24T23:12:43.259Z,562.95
2023-10-24T23:15:13.415Z,443.95
2023-10-24T23:17:41.981Z,481.90
2023-10-24T23:20:11.672Z,556.33
2023-10-24T23:22:40.262Z,437.27
2023-10-24T23:25:09.321Z,426.35
2023-10-24T23:27:38.199Z,396.50
2023-10-24T23:30:07.950Z,389.15
2023-10-24T23:32:38.004Z,515.55
2023-10-24T23:35:07.864Z,537.58
2023-10-24T23:37:36.482Z,369.52
2023-10-24T23:40:05.732Z,548.53
2023-10-24T23:42:34.605Z,414.80
2023-10-24T23:45:03.066Z,306.92
2023-10-24T23:47:31.434Z,417.10
2023-10-24T23:50:01.241Z,512.10
2023-10-24T23:52:29.757Z,449.23
2023-10-24T23:54:58.361Z,371.73
2023-10-24T23:57:27.695Z,478.13
2023-10-24T23:59:56.150Z,430.25
